createdAt,value
2023-02-14T00:00:13.926Z,100981.77
2023-02-14T00:03:02.838Z,100981.42
2023-02-14T00:05:51.601Z,100980.94
2023-02-14T00:08:41.165Z,100982.52
2023-02-14T00:11:30.100Z,100980.80
2023-02-14T00:14:37.438Z,100978.94
2023-02-14T00:17:26.230Z,100971.85
2023-02-14T00:20:14.965Z,100970.17
2023-02-14T00:23:04.485Z,100974.16
2023-02-14T00:25:53.245Z,100965.98
2023-02-14T00:28:42.409Z,100960.08
2023-02-14T00:31:31.675Z,100950.04
2023-02-14T00:34:21.176Z,100947.30
2023-02-14T00:37:11.491Z,100947.67
2023-02-14T00:40:00.140Z,100952.46
2023-02-14T00:42:48.889Z,100944.31
2023-02-14T00:45:37.664Z,100928.45
2023-02-14T00:48:26.381Z,100915.30
2023-02-14T00:51:15.330Z,100924.86
2023-02-14T00:54:05.165Z,100929.20
2023-02-14T00:56:53.818Z,100927.45
2023-02-14T00:59:43.680Z,100928.90
2023-02-14T01:02:32.652Z,100927.65
2023-02-14T01:05:21.444Z,100924.72
2023-02-14T01:08:10.339Z,100921.18
2023-02-14T01:11:19.379Z,100915.90
2023-02-14T01:14:08.413Z,100911.90
2023-02-14T01:16:57.337Z,100922.57
2023-02-14T01:19:46.610Z,100923.61
2023-02-14T01:22:39.305Z,100916.65
2023-02-14T01:25:28.808Z,100907.38
2023-02-14T01:28:17.734Z,100909.30
2023-02-14T01:31:08.298Z,100903.55
2023-02-14T01:33:57.335Z,100902.09
2023-02-14T01:36:46.084Z,100899.18
2023-02-14T01:39:35.596Z,100893.73
2023-02-14T01:42:24.544Z,100893.99
2023-02-14T01:45:20.974Z,100889.25
2023-02-14T01:48:09.610Z,100887.29
2023-02-14T01:50:59.078Z,100879.59
2023-02-14T01:53:49.201Z,100877.59
2023-02-14T01:56:41.644Z,100873.87
2023-02-14T01:59:34.173Z,100876.27
2023-02-14T02:02:25.770Z,100872.71
2023-02-14T02:05:15.504Z,100874.52
2023-02-14T02:08:04.562Z,100872.88
2023-02-14T02:10:53.250Z,100869.38
2023-02-14T02:13:41.964Z,100868.52
2023-02-14T02:16:44.017Z,100859.68
2023-02-14T02:19:41.818Z,100855.30
2023-02-14T02:22:36.604Z,100856.49
2023-02-14T02:25:34.323Z,100855.55
2023-02-14T02:28:59.872Z,100845.30
2023-02-14T02:31:58.998Z,100841.59
2023-02-14T02:35:06.933Z,100837.56
2023-02-14T02:38:35.082Z,100831.05
2023-02-14T02:42:01.798Z,100830.56
2023-02-14T02:45:09.696Z,100831.62
2023-02-14T02:48:09.880Z,100829.45
2023-02-14T02:51:17.311Z,100822.43
2023-02-14T02:54:47.578Z,100821.86
2023-02-14T02:57:38.680Z,100814.91
2023-02-14T03:00:27.536Z,100795.89
2023-02-14T03:03:34.944Z,100801.69
2023-02-14T03:06:24.836Z,100797.14
2023-02-14T03:09:33.509Z,100785.98
2023-02-14T03:12:41.062Z,100778.42
2023-02-14T03:15:48.160Z,100754.98
2023-02-14T03:18:58.016Z,100759.84
2023-02-14T03:22:19.028Z,100762.44
2023-02-14T03:25:50.861Z,100753.81
2023-02-14T03:28:45.641Z,100750.48
2023-02-14T03:31:36.313Z,100747.64
2023-02-14T03:34:31.702Z,100744.11
2023-02-14T03:37:31.632Z,100740.89
2023-02-14T03:40:25.379Z,100734.36
2023-02-14T03:43:17.761Z,100736.89
2023-02-14T03:46:10.479Z,100762.23
2023-02-14T03:49:00.428Z,100773.20
2023-02-14T03:51:49.753Z,100784.67
2023-02-14T03:54:38.488Z,100785.46
2023-02-14T03:57:30.676Z,100797.29
2023-02-14T04:00:19.685Z,100814.02
2023-02-14T04:03:13.791Z,100818.52
2023-02-14T04:06:03.834Z,100822.48
2023-02-14T04:08:52.671Z,100825.35
2023-02-14T04:11:41.545Z,100824.65
2023-02-14T04:14:32.338Z,100826.02
2023-02-14T04:17:41.597Z,100834.05
2023-02-14T04:20:30.599Z,100836.98
2023-02-14T04:23:20.769Z,100836.76
2023-02-14T04:26:10.769Z,100837.51
2023-02-14T04:28:59.470Z,100839.77
2023-02-14T04:31:48.318Z,100828.27
2023-02-14T04:34:37.587Z,100819.00
2023-02-14T04:37:26.602Z,100818.54
2023-02-14T04:40:18.241Z,100817.84
2023-02-14T04:43:08.230Z,100822.38
2023-02-14T04:45:57.067Z,100830.11
2023-02-14T04:48:46.228Z,100830.87
2023-02-14T04:51:35.674Z,100830.19
2023-02-14T04:54:24.953Z,100829.27
2023-02-14T04:57:13.583Z,100824.33
2023-02-14T05:00:03.162Z,100826.89
2023-02-14T05:02:52.677Z,100835.20
2023-02-14T05:05:42.027Z,100839.82
2023-02-14T05:08:31.021Z,100839.59
2023-02-14T05:11:19.924Z,100834.95
2023-02-14T05:14:08.825Z,100841.10
2023-02-14T05:16:57.909Z,100839.93
2023-02-14T05:19:47.079Z,100844.52
2023-02-14T05:22:35.891Z,100846.58
2023-02-14T05:25:24.629Z,100844.84
2023-02-14T05:28:14.581Z,100845.02
2023-02-14T05:31:03.873Z,100846.52
2023-02-14T05:33:53.085Z,100850.73
2023-02-14T05:36:43.277Z,100852.19
2023-02-14T05:39:33.681Z,100852.23
2023-02-14T05:42:24.834Z,100861.10
2023-02-14T05:45:13.690Z,100864.29
2023-02-14T05:48:02.424Z,100866.48
2023-02-14T05:50:51.109Z,100868.23
2023-02-14T05:53:40.671Z,100869.61
2023-02-14T05:56:29.655Z,100866.45
2023-02-14T05:59:18.283Z,100866.88
2023-02-14T06:02:06.993Z,100864.96
2023-02-14T06:04:56.516Z,100866.52
2023-02-14T06:07:50.641Z,100869.89
2023-02-14T06:10:39.831Z,100870.94
2023-02-14T06:13:30.109Z,100874.41
2023-02-14T06:16:19.458Z,100866.94
2023-02-14T06:19:11.544Z,100868.52
2023-02-14T06:22:00.208Z,100868.77
2023-02-14T06:24:50.605Z,100866.79
2023-02-14T06:27:40.663Z,100871.10
2023-02-14T06:30:29.481Z,100867.38
2023-02-14T06:33:19.498Z,100876.23
2023-02-14T06:36:08.600Z,100879.58
2023-02-14T06:38:57.278Z,100885.45
2023-02-14T06:41:45.865Z,100884.31
2023-02-14T06:44:34.670Z,100891.35
2023-02-14T06:47:23.418Z,100894.17
2023-02-14T06:50:12.073Z,100894.94
2023-02-14T06:53:00.839Z,100887.51
2023-02-14T06:55:49.740Z,100886.78
2023-02-14T06:58:39.490Z,100889.29
2023-02-14T07:01:28.266Z,100880.88
2023-02-14T07:04:17.857Z,100883.16
2023-02-14T07:07:06.467Z,100891.41
2023-02-14T07:09:56.300Z,100891.61
2023-02-14T07:12:45.293Z,100902.50
2023-02-14T07:15:34.108Z,100902.63
2023-02-14T07:18:22.925Z,100902.63
2023-02-14T07:21:11.706Z,100900.40
2023-02-14T07:24:00.547Z,100906.08
2023-02-14T07:26:49.191Z,100903.13
2023-02-14T07:29:38.138Z,100909.22
2023-02-14T07:32:27.304Z,100912.21
2023-02-14T07:35:16.057Z,100909.41
2023-02-14T07:38:04.703Z,100911.29
2023-02-14T07:40:53.951Z,100918.11
2023-02-14T07:43:42.466Z,100918.66
2023-02-14T07:46:31.295Z,100917.25
2023-02-14T07:49:19.854Z,100917.44
2023-02-14T07:52:08.834Z,100918.64
2023-02-14T07:54:57.416Z,100908.98
2023-02-14T07:57:49.344Z,100903.98
2023-02-14T08:00:38.104Z,100903.45
2023-02-14T08:03:27.631Z,100904.42
2023-02-14T08:06:17.486Z,100904.43
2023-02-14T08:09:06.220Z,100903.10
2023-02-14T08:12:14.951Z,100903.30
2023-02-14T08:15:23.923Z,100904.23
2023-02-14T08:18:13.174Z,100906.63
2023-02-14T08:21:02.326Z,100903.63
2023-02-14T08:23:52.235Z,100904.17
2023-02-14T08:26:41.050Z,100906.30
2023-02-14T08:29:29.849Z,100912.14
2023-02-14T08:32:20.971Z,100910.60
2023-02-14T08:35:09.826Z,100911.59
2023-02-14T08:37:59.280Z,100912.62
2023-02-14T08:40:48.152Z,100915.98
2023-02-14T08:43:37.028Z,100915.80
2023-02-14T08:46:26.393Z,100916.98
2023-02-14T08:49:14.956Z,100922.67
2023-02-14T08:52:03.750Z,100916.04
2023-02-14T08:54:52.357Z,100915.78
2023-02-14T08:57:42.958Z,100915.48
2023-02-14T09:00:33.090Z,100919.00
2023-02-14T09:03:23.505Z,100922.05
2023-02-14T09:06:14.555Z,100924.23
2023-02-14T09:09:03.599Z,100923.67
2023-02-14T09:11:52.355Z,100920.30
2023-02-14T09:14:45.450Z,100933.41
2023-02-14T09:17:34.348Z,100928.63
2023-02-14T09:20:23.577Z,100936.67
2023-02-14T09:23:12.393Z,100930.33
2023-02-14T09:26:02.338Z,100933.41
2023-02-14T09:28:51.132Z,100939.60
2023-02-14T09:31:40.208Z,100937.05
2023-02-14T09:34:29.396Z,100928.63
2023-02-14T09:37:41.994Z,100929.95
2023-02-14T09:40:32.227Z,100928.32
2023-02-14T09:43:36.611Z,100931.16
2023-02-14T09:46:25.411Z,100929.65
2023-02-14T09:49:16.046Z,100929.52
2023-02-14T09:52:06.053Z,100930.09
2023-02-14T09:54:57.790Z,100934.13
2023-02-14T09:58:08.222Z,100938.77
2023-02-14T10:01:18.978Z,100935.11
2023-02-14T10:04:16.749Z,100931.55
2023-02-14T10:07:09.379Z,100930.02
2023-02-14T10:10:20.513Z,100926.60
2023-02-14T10:13:33.033Z,100920.34
2023-02-14T10:16:40.205Z,100922.43
2023-02-14T10:19:34.187Z,100912.65
2023-02-14T10:22:43.036Z,100908.80
2023-02-14T10:25:40.994Z,100908.61
2023-02-14T10:28:35.329Z,100900.58
2023-02-14T10:31:36.569Z,100898.20
2023-02-14T10:34:49.313Z,100895.94
2023-02-14T10:38:17.605Z,100895.65
2023-02-14T10:41:31.160Z,100897.89
2023-02-14T10:44:26.959Z,100894.23
2023-02-14T10:47:43.720Z,100899.52
2023-02-14T10:50:39.696Z,100898.13
2023-02-14T10:54:06.795Z,100900.46
2023-02-14T10:57:03.471Z,100900.34
2023-02-14T10:59:57.907Z,100900.59
2023-02-14T11:02:47.319Z,100902.38
2023-02-14T11:05:46.444Z,100901.47
2023-02-14T11:08:37.447Z,100905.21
2023-02-14T11:11:32.133Z,100904.85
2023-02-14T11:14:24.476Z,100909.16
2023-02-14T11:17:31.675Z,100903.27
2023-02-14T11:20:23.517Z,100895.84
2023-02-14T11:23:21.755Z,100890.42
2023-02-14T11:26:30.997Z,100889.64
2023-02-14T11:29:30.643Z,100893.18
2023-02-14T11:32:25.105Z,100887.40
2023-02-14T11:35:20.101Z,100885.02
2023-02-14T11:38:26.394Z,100887.98
2023-02-14T11:41:15.958Z,100896.21
2023-02-14T11:44:22.829Z,100891.27
2023-02-14T11:47:26.410Z,100891.66
2023-02-14T11:50:23.507Z,100891.80
2023-02-14T11:53:12.581Z,100907.44
2023-02-14T11:56:01.261Z,100913.39
2023-02-14T11:59:05.688Z,100915.50
2023-02-14T12:01:55.095Z,100915.06
2023-02-14T12:04:46.433Z,100912.55
2023-02-14T12:07:38.122Z,100900.13
2023-02-14T12:10:30.687Z,100909.89
2023-02-14T12:13:21.943Z,100910.72
2023-02-14T12:16:17.898Z,100907.90
2023-02-14T12:19:08.236Z,100908.91
2023-02-14T12:22:03.587Z,100904.20
2023-02-14T12:24:58.352Z,100909.05
2023-02-14T12:28:26.020Z,100908.98
2023-02-14T12:31:15.392Z,100908.27
2023-02-14T12:34:04.241Z,100904.52
2023-02-14T12:37:12.161Z,100900.48
2023-02-14T12:40:23.176Z,100900.05
2023-02-14T12:43:39.779Z,100900.20
2023-02-14T12:46:51.499Z,100904.69
2023-02-14T12:49:57.606Z,100904.70
2023-02-14T12:52:59.087Z,100903.43
2023-02-14T12:56:12.459Z,100903.83
2023-02-14T12:59:05.331Z,100908.00
2023-02-14T13:02:15.402Z,100909.13
2023-02-14T13:05:28.322Z,100911.60
2023-02-14T13:08:29.510Z,100913.38
2023-02-14T13:11:42.789Z,100915.79
2023-02-14T13:14:53.930Z,100918.14
2023-02-14T13:17:56.427Z,100921.10
2023-02-14T13:20:51.289Z,100922.14
2023-02-14T13:23:45.404Z,100917.60
2023-02-14T13:26:38.779Z,100923.77
2023-02-14T13:29:29.040Z,100927.52
2023-02-14T13:32:20.395Z,100930.69
2023-02-14T13:35:17.611Z,100931.10
2023-02-14T13:38:08.468Z,100929.86
2023-02-14T13:40:58.193Z,100933.05
2023-02-14T13:43:52.616Z,100934.43
2023-02-14T13:46:45.736Z,100932.95
2023-02-14T13:49:35.079Z,100933.45
2023-02-14T13:52:46.464Z,100938.19
2023-02-14T13:55:36.804Z,100934.99
2023-02-14T13:58:27.412Z,100944.63
2023-02-14T14:01:39.310Z,100947.02
2023-02-14T14:04:31.964Z,100948.21
2023-02-14T14:07:23.157Z,100953.39
2023-02-14T14:10:12.938Z,100956.89
2023-02-14T14:13:01.867Z,100962.34
2023-02-14T14:16:28.751Z,100964.49
2023-02-14T14:19:17.608Z,100963.77
2023-02-14T14:22:10.571Z,100965.26
2023-02-14T14:25:01.872Z,100968.06
2023-02-14T14:27:50.876Z,100970.84
2023-02-14T14:30:39.636Z,100971.41
2023-02-14T14:33:30.564Z,100975.30
2023-02-14T14:36:22.832Z,100980.49
2023-02-14T14:39:27.335Z,100975.98
2023-02-14T14:42:16.172Z,100979.20
2023-02-14T14:45:29.018Z,100985.19
2023-02-14T14:48:22.076Z,100985.09
2023-02-14T14:51:34.690Z,100988.29
2023-02-14T14:54:27.580Z,100990.69
2023-02-14T14:57:16.351Z,100987.13
2023-02-14T15:00:18.499Z,100995.56
2023-02-14T15:03:07.251Z,100997.27
2023-02-14T15:06:13.841Z,101000.67
2023-02-14T15:09:21.355Z,101008.41
2023-02-14T15:12:30.848Z,101013.38
2023-02-14T15:15:19.473Z,101011.48
2023-02-14T15:18:08.856Z,101010.55
2023-02-14T15:20:58.202Z,101012.77
2023-02-14T15:23:47.290Z,101015.70
2023-02-14T15:26:36.127Z,101016.35
2023-02-14T15:29:29.993Z,101023.82
2023-02-14T15:32:19.097Z,101024.27
2023-02-14T15:35:07.916Z,101032.59
2023-02-14T15:37:57.793Z,101036.47
2023-02-14T15:40:46.764Z,101047.34
2023-02-14T15:43:36.579Z,101057.91
2023-02-14T15:46:27.860Z,101060.86
2023-02-14T15:49:18.955Z,101060.92
2023-02-14T15:52:11.385Z,101068.55
2023-02-14T15:54:59.996Z,101069.24
2023-02-14T15:57:56.956Z,101065.98
2023-02-14T16:00:45.812Z,101068.73
2023-02-14T16:03:37.101Z,101074.40
2023-02-14T16:06:38.836Z,101075.70
2023-02-14T16:09:28.874Z,101084.98
2023-02-14T16:12:33.077Z,101087.86
2023-02-14T16:15:23.369Z,101089.10
2023-02-14T16:18:19.486Z,101090.27
2023-02-14T16:21:11.239Z,101092.91
2023-02-14T16:24:06.768Z,101100.39
2023-02-14T16:26:55.950Z,101103.04
2023-02-14T16:29:44.877Z,101102.70
2023-02-14T16:32:33.844Z,101108.16
2023-02-14T16:35:22.854Z,101116.52
2023-02-14T16:38:16.317Z,101113.14
2023-02-14T16:41:05.783Z,101116.45
2023-02-14T16:43:55.110Z,101125.63
2023-02-14T16:46:45.506Z,101128.13
2023-02-14T16:49:34.095Z,101128.02
2023-02-14T16:52:24.100Z,101130.31
2023-02-14T16:55:16.756Z,101133.32
2023-02-14T16:58:05.418Z,101141.52
2023-02-14T17:00:54.948Z,101142.61
2023-02-14T17:03:44.789Z,101145.34
2023-02-14T17:06:37.153Z,101146.66
2023-02-14T17:09:28.041Z,101149.60
2023-02-14T17:12:19.707Z,101152.09
2023-02-14T17:15:10.913Z,101154.58
2023-02-14T17:18:05.057Z,101161.76
2023-02-14T17:20:54.161Z,101164.86
2023-02-14T17:23:43.163Z,101169.64
2023-02-14T17:26:33.888Z,101176.06
2023-02-14T17:29:23.011Z,101176.27
2023-02-14T17:32:13.784Z,101178.30
2023-02-14T17:35:05.205Z,101180.90
2023-02-14T17:37:54.535Z,101185.53
2023-02-14T17:40:43.384Z,101182.50
2023-02-14T17:43:34.216Z,101185.04
2023-02-14T17:46:22.992Z,101185.98
2023-02-14T17:49:11.732Z,101194.77
2023-02-14T17:52:00.313Z,101192.70
2023-02-14T17:54:49.243Z,101200.82
2023-02-14T17:57:39.182Z,101203.89
2023-02-14T18:00:28.804Z,101208.14
2023-02-14T18:03:20.386Z,101208.25
2023-02-14T18:06:11.236Z,101209.47
2023-02-14T18:09:04.769Z,101204.77
2023-02-14T18:11:55.570Z,101209.36
2023-02-14T18:14:45.140Z,101211.05
2023-02-14T18:17:33.974Z,101210.39
2023-02-14T18:20:22.736Z,101210.73
2023-02-14T18:23:11.748Z,101210.56
2023-02-14T18:26:04.367Z,101214.14
2023-02-14T18:28:53.297Z,101211.73
2023-02-14T18:31:43.438Z,101219.46
2023-02-14T18:34:36.351Z,101218.91
2023-02-14T18:37:25.032Z,101223.20
2023-02-14T18:40:20.200Z,101227.92
2023-02-14T18:43:10.018Z,101225.96
2023-02-14T18:46:06.272Z,101230.77
2023-02-14T18:48:55.915Z,101230.23
2023-02-14T18:51:45.059Z,101235.56
2023-02-14T18:54:33.710Z,101233.79
2023-02-14T18:57:22.745Z,101238.71
2023-02-14T19:00:12.279Z,101245.75
2023-02-14T19:03:01.647Z,101249.57
2023-02-14T19:05:50.397Z,101252.77
2023-02-14T19:08:40.075Z,101252.86
2023-02-14T19:11:31.745Z,101249.75
2023-02-14T19:14:20.634Z,101257.73
2023-02-14T19:17:09.324Z,101258.98
2023-02-14T19:19:58.281Z,101257.98
2023-02-14T19:22:46.916Z,101264.20
2023-02-14T19:25:38.357Z,101271.06
2023-02-14T19:28:28.151Z,101276.05
2023-02-14T19:31:18.085Z,101281.00
2023-02-14T19:34:07.230Z,101280.89
2023-02-14T19:37:00.425Z,101285.54
2023-02-14T19:39:49.416Z,101286.36
2023-02-14T19:42:38.394Z,101292.69
2023-02-14T19:45:32.443Z,101290.50
2023-02-14T19:48:21.377Z,101293.71
2023-02-14T19:51:16.718Z,101294.07
2023-02-14T19:54:07.059Z,101294.02
2023-02-14T19:56:56.396Z,101298.19
2023-02-14T19:59:45.600Z,101300.75
2023-02-14T20:02:35.326Z,101304.45
2023-02-14T20:05:24.921Z,101301.58
2023-02-14T20:08:13.836Z,101304.30
2023-02-14T20:11:02.951Z,101304.98
2023-02-14T20:13:54.384Z,101304.36
2023-02-14T20:16:43.718Z,101308.27
2023-02-14T20:19:34.601Z,101312.93
2023-02-14T20:22:25.601Z,101314.73
2023-02-14T20:25:14.490Z,101317.89
2023-02-14T20:28:04.264Z,101323.30
2023-02-14T20:30:53.316Z,101322.35
2023-02-14T20:33:42.539Z,101328.16
2023-02-14T20:36:31.438Z,101331.23
2023-02-14T20:39:21.334Z,101333.54
2023-02-14T20:42:10.089Z,101335.13
2023-02-14T20:44:59.262Z,101338.16
2023-02-14T20:47:48.923Z,101343.15
2023-02-14T20:50:38.130Z,101345.36
2023-02-14T20:53:27.598Z,101342.95
2023-02-14T20:56:16.461Z,101343.90
2023-02-14T20:59:05.355Z,101350.92
2023-02-14T21:01:57.997Z,101349.88
2023-02-14T21:04:46.733Z,101351.47
2023-02-14T21:07:35.386Z,101354.84
2023-02-14T21:10:24.926Z,101359.86
2023-02-14T21:13:14.038Z,101364.48
2023-02-14T21:16:09.702Z,101368.89
2023-02-14T21:19:01.599Z,101369.57
2023-02-14T21:21:50.862Z,101374.25
2023-02-14T21:24:40.357Z,101372.52
2023-02-14T21:27:30.721Z,101377.92
2023-02-14T21:30:19.606Z,101377.64
2023-02-14T21:33:10.078Z,101378.02
2023-02-14T21:36:14.312Z,101380.79
2023-02-14T21:39:03.808Z,101384.40
2023-02-14T21:41:52.640Z,101388.47
2023-02-14T21:44:59.995Z,101389.80
2023-02-14T21:48:09.319Z,101389.05
2023-02-14T21:50:57.996Z,101390.83
2023-02-14T21:53:46.802Z,101387.57
2023-02-14T21:56:38.034Z,101393.66
2023-02-14T21:59:28.054Z,101400.84
2023-02-14T22:02:16.956Z,101399.93
2023-02-14T22:05:07.792Z,101403.95
2023-02-14T22:07:56.578Z,101403.95
2023-02-14T22:10:47.049Z,101406.23
2023-02-14T22:13:36.037Z,101409.63
2023-02-14T22:16:25.190Z,101408.70
2023-02-14T22:19:15.528Z,101414.46
2023-02-14T22:22:04.491Z,101413.36
2023-02-14T22:24:53.367Z,101411.30
2023-02-14T22:27:42.079Z,101411.86
2023-02-14T22:30:31.154Z,101411.77
2023-02-14T22:33:21.663Z,101412.41
2023-02-14T22:36:10.638Z,101410.83
2023-02-14T22:38:59.337Z,101410.34
2023-02-14T22:41:48.848Z,101410.64
2023-02-14T22:44:37.996Z,101412.70
2023-02-14T22:47:26.652Z,101417.52
2023-02-14T22:50:15.655Z,101420.01
2023-02-14T22:53:04.636Z,101421.63
2023-02-14T22:55:53.306Z,101425.40
2023-02-14T22:58:42.097Z,101426.45
2023-02-14T23:01:31.225Z,101430.42
2023-02-14T23:04:21.822Z,101430.64
2023-02-14T23:07:11.369Z,101433.35
2023-02-14T23:10:00.069Z,101430.77
2023-02-14T23:13:10.925Z,101434.89
2023-02-14T23:16:18.021Z,101431.52
2023-02-14T23:19:38.174Z,101436.95
2023-02-14T23:22:40.116Z,101440.31
2023-02-14T23:25:28.705Z,101439.39
2023-02-14T23:28:17.590Z,101445.63
2023-02-14T23:31:07.741Z,101449.59
2023-02-14T23:33:56.409Z,101451.34
2023-02-14T23:36:45.931Z,101452.62
2023-02-14T23:39:37.883Z,101452.72
2023-02-14T23:42:28.361Z,101455.45
2023-02-14T23:45:35.327Z,101452.95
2023-02-14T23:48:24.296Z,101451.67
2023-02-14T23:51:13.363Z,101453.08
2023-02-14T23:54:02.106Z,101453.20
2023-02-14T23:56:52.219Z,101458.07
2023-02-14T23:59:41.015Z,101462.73
